createdAt,value
2023-03-05T00:03:15.470Z,18.98
2023-03-05T00:08:14.320Z,21.65
2023-03-05T00:13:13.055Z,19.08
2023-03-05T00:18:13.237Z,18.20
2023-03-05T00:23:12.006Z,18.08
2023-03-05T00:28:11.206Z,18.35
2023-03-05T00:33:10.995Z,19.55
2023-03-05T00:38:11.684Z,16.33
2023-03-05T00:43:11.108Z,17.50
2023-03-05T00:48:10.715Z,19.83
2023-03-05T00:53:10.966Z,20.05
2023-03-05T00:58:09.843Z,18.13
2023-03-05T01:03:09.252Z,20.08
2023-03-05T01:08:08.095Z,19.77
2023-03-05T01:13:08.334Z,15.65
2023-03-05T01:18:07.120Z,19.45
2023-03-05T01:23:05.907Z,18.55
2023-03-05T01:28:04.994Z,17.58
2023-03-05T01:33:05.770Z,20.75
2023-03-05T01:38:04.550Z,20.02
2023-03-05T01:43:22.366Z,18.90
2023-03-05T01:48:22.715Z,19.73
2023-03-05T01:53:21.766Z,21.63
2023-03-05T01:58:20.603Z,21.00
2023-03-05T02:03:21.372Z,19.40
2023-03-05T02:08:23.708Z,21.63
2023-03-05T02:13:24.927Z,19.47
2023-03-05T02:18:23.994Z,19.83
2023-03-05T02:23:26.078Z,20.45
2023-03-05T02:28:27.790Z,22.25
2023-03-05T02:33:26.696Z,23.23
2023-03-05T02:38:26.905Z,20.45
2023-03-05T02:43:25.668Z,20.98
2023-03-05T02:48:25.274Z,20.40
2023-03-05T02:53:24.329Z,21.08
2023-03-05T02:58:24.857Z,23.55
2023-03-05T03:03:23.953Z,23.45
2023-03-05T03:08:22.845Z,22.42
2023-03-05T03:13:21.616Z,19.38
2023-03-05T03:18:21.886Z,19.70
2023-03-05T03:23:20.594Z,20.58
2023-03-05T03:28:19.437Z,21.50
2023-03-05T03:33:18.373Z,21.58
2023-03-05T03:38:18.559Z,22.08
2023-03-05T03:43:17.278Z,22.23
2023-03-05T03:48:16.048Z,20.98
2023-03-05T03:53:17.526Z,21.40
2023-03-05T03:58:20.179Z,23.27
2023-03-05T04:03:18.921Z,23.13
2023-03-05T04:08:17.739Z,22.27
2023-03-05T04:13:17.859Z,19.90
2023-03-05T04:18:16.629Z,21.75
2023-03-05T04:23:15.391Z,22.55
2023-03-05T04:28:14.272Z,22.88
2023-03-05T04:33:14.422Z,20.90
2023-03-05T04:38:13.468Z,21.80
2023-03-05T04:43:12.394Z,23.40
2023-03-05T04:48:12.457Z,21.73
2023-03-05T04:53:12.602Z,23.88
2023-03-05T04:58:11.555Z,22.85
2023-03-05T05:03:10.554Z,21.75
2023-03-05T05:08:09.345Z,21.25
2023-03-05T05:13:09.558Z,19.85
2023-03-05T05:18:08.327Z,21.08
2023-03-05T05:23:07.127Z,22.40
2023-03-05T05:28:06.394Z,45.20
2023-03-05T05:33:06.600Z,77.45
2023-03-05T05:38:05.400Z,63.28
2023-03-05T05:43:04.296Z,104.68
2023-03-05T05:48:03.128Z,55.67
2023-03-05T05:53:05.408Z,32.78
2023-03-05T05:58:04.374Z,27.70
2023-03-05T06:03:03.175Z,24.80
2023-03-05T06:08:03.342Z,21.88
2023-03-05T06:13:02.140Z,23.17
2023-03-05T06:18:01.169Z,20.90
2023-03-05T06:23:00.098Z,23.27
2023-03-05T06:28:00.859Z,21.25
2023-03-05T06:32:59.691Z,22.65
2023-03-05T06:37:58.573Z,20.40
2023-03-05T06:42:57.249Z,20.55
2023-03-05T06:47:57.446Z,19.88
2023-03-05T06:52:56.296Z,19.02
2023-03-05T06:57:55.139Z,21.13
2023-03-05T07:02:53.954Z,21.83
2023-03-05T07:07:54.230Z,20.80
2023-03-05T07:12:52.998Z,22.15
2023-03-05T07:17:52.129Z,21.13
2023-03-05T07:22:50.995Z,21.98
2023-03-05T07:27:53.655Z,21.38
2023-03-05T07:32:52.371Z,20.87
2023-03-05T07:37:51.160Z,22.35
2023-03-05T07:42:51.374Z,20.58
2023-03-05T07:48:00.381Z,22.02
2023-03-05T07:52:59.258Z,23.42
2023-03-05T07:57:59.502Z,24.23
2023-03-05T08:02:58.234Z,23.20
2023-03-05T08:07:57.009Z,21.60
2023-03-05T08:12:55.921Z,22.38
2023-03-05T08:17:56.232Z,22.67
2023-03-05T08:22:54.975Z,22.27
2023-03-05T08:27:53.889Z,21.70
2023-03-05T08:32:53.138Z,24.65
2023-03-05T08:37:53.277Z,23.13
2023-03-05T08:42:52.437Z,24.45
2023-03-05T08:47:51.358Z,21.77
2023-03-05T08:52:50.583Z,22.40
2023-03-05T08:57:50.852Z,24.45
2023-03-05T09:02:49.900Z,21.85
2023-03-05T09:07:48.656Z,23.02
2023-03-05T09:12:49.283Z,24.38
2023-03-05T09:17:49.512Z,22.65
2023-03-05T09:22:48.267Z,26.95
2023-03-05T09:27:46.964Z,26.42
2023-03-05T09:32:45.867Z,23.55
2023-03-05T09:37:46.137Z,23.10
2023-03-05T09:42:59.989Z,24.10
2023-03-05T09:48:08.459Z,23.73
2023-03-05T09:53:21.906Z,23.15
2023-03-05T09:58:30.977Z,23.27
2023-03-05T10:03:33.359Z,22.50
2023-03-05T10:08:46.731Z,22.92
2023-03-05T10:13:47.331Z,22.50
2023-03-05T10:18:54.245Z,22.20
2023-03-05T10:24:06.059Z,21.30
2023-03-05T10:29:20.367Z,21.55
2023-03-05T10:34:50.342Z,23.20
2023-03-05T10:40:05.849Z,23.08
2023-03-05T10:45:16.555Z,22.02
2023-03-05T10:50:19.654Z,22.05
2023-03-05T10:55:22.260Z,23.38
2023-03-05T11:00:22.713Z,23.85
2023-03-05T11:05:47.158Z,22.83
2023-03-05T11:10:49.426Z,28.70
2023-03-05T11:16:01.316Z,23.42
2023-03-05T11:21:10.176Z,22.02
2023-03-05T11:26:22.778Z,22.35
2023-03-05T11:31:27.087Z,24.15
2023-03-05T11:36:27.963Z,20.90
2023-03-05T11:41:40.645Z,23.48
2023-03-05T11:46:43.977Z,20.85
2023-03-05T11:51:47.288Z,21.88
2023-03-05T11:56:48.629Z,23.40
2023-03-05T12:01:50.445Z,23.17
2023-03-05T12:06:52.468Z,25.33
2023-03-05T12:11:59.152Z,23.17
2023-03-05T12:17:07.276Z,22.60
2023-03-05T12:22:16.448Z,25.42
2023-03-05T12:27:35.219Z,32.58
2023-03-05T12:33:02.385Z,34.13
2023-03-05T12:38:24.315Z,24.85
2023-03-05T12:43:33.397Z,25.33
2023-03-05T12:48:45.749Z,28.42
2023-03-05T12:53:47.315Z,32.05
2023-03-05T12:58:50.940Z,22.60
2023-03-05T13:03:55.767Z,27.30
2023-03-05T13:09:00.179Z,21.05
2023-03-05T13:14:00.797Z,27.73
2023-03-05T13:19:02.770Z,31.10
2023-03-05T13:24:04.745Z,19.15
2023-03-05T13:34:15.550Z,19.35
2023-03-05T13:39:22.317Z,21.73
2023-03-05T13:44:22.992Z,22.55
2023-03-05T13:49:24.393Z,23.75
2023-03-05T13:54:25.000Z,21.85
2023-03-05T13:59:28.558Z,23.67
2023-03-05T14:04:29.458Z,22.63
2023-03-05T14:09:30.629Z,21.55
2023-03-05T14:14:34.009Z,23.13
2023-03-05T14:19:36.776Z,20.40
2023-03-05T14:24:35.856Z,20.48
2023-03-05T14:29:37.090Z,23.15
2023-03-05T14:34:38.476Z,20.73
2023-03-05T14:39:51.157Z,21.50
2023-03-05T14:44:55.806Z,23.33
2023-03-05T14:49:54.817Z,22.10
2023-03-05T14:55:04.697Z,21.90
2023-03-05T15:00:08.783Z,21.63
2023-03-05T15:05:12.584Z,21.70
2023-03-05T15:10:17.755Z,20.90
2023-03-05T15:15:20.094Z,22.85
2023-03-05T15:20:22.239Z,26.23
2023-03-05T15:25:23.274Z,23.13
2023-03-05T15:30:29.561Z,29.50
2023-03-05T15:35:31.993Z,25.40
2023-03-05T15:40:31.703Z,26.80
2023-03-05T15:45:31.914Z,24.80
2023-03-05T15:50:30.889Z,28.50
2023-03-05T15:55:31.597Z,32.28
2023-03-05T16:00:33.176Z,36.42
2023-03-05T16:05:35.250Z,39.60
2023-03-05T16:10:36.726Z,41.60
2023-03-05T16:15:39.629Z,40.03
2023-03-05T16:20:40.378Z,38.75
2023-03-05T16:25:40.396Z,39.70
2023-03-05T16:30:43.351Z,43.88
2023-03-05T16:35:43.231Z,42.50
2023-03-05T16:41:06.743Z,40.15
2023-03-05T16:46:06.344Z,42.72
2023-03-05T16:51:07.167Z,51.28
2023-03-05T16:56:09.506Z,52.85
2023-03-05T17:01:15.583Z,54.00
2023-03-05T17:06:19.242Z,51.75
2023-03-05T17:11:20.856Z,50.13
2023-03-05T17:16:22.378Z,51.05
2023-03-05T17:21:21.519Z,54.45
2023-03-05T17:26:22.182Z,47.75
2023-03-05T17:31:22.329Z,53.20
2023-03-05T17:36:21.941Z,54.97
2023-03-05T17:41:22.092Z,54.28
2023-03-05T17:46:22.297Z,70.47
2023-03-05T17:51:21.199Z,102.55
2023-03-05T17:56:22.234Z,66.05
2023-03-05T18:01:27.545Z,60.38
2023-03-05T18:06:26.753Z,50.92
2023-03-05T18:11:25.800Z,43.45
2023-03-05T18:16:26.100Z,34.25
2023-03-05T18:21:28.249Z,26.27
2023-03-05T18:26:27.037Z,19.75
2023-03-05T18:31:27.578Z,14.80
2023-03-05T18:36:27.945Z,15.32
2023-03-05T18:41:29.222Z,14.25
2023-03-05T18:46:33.712Z,19.33
2023-03-05T18:51:33.041Z,16.70
2023-03-05T18:56:31.955Z,15.23
2023-03-05T19:01:32.253Z,14.18
2023-03-05T19:06:31.107Z,13.85
2023-03-05T19:11:29.909Z,12.50
2023-03-05T19:16:39.418Z,13.88
2023-03-05T19:21:38.233Z,16.27
2023-03-05T19:26:36.937Z,13.80
2023-03-05T19:31:38.378Z,12.00
2023-03-05T19:36:37.757Z,12.50
2023-03-05T19:41:37.232Z,12.63
2023-03-05T19:46:37.425Z,10.40
2023-03-05T19:51:39.943Z,11.52
2023-03-05T19:56:39.326Z,10.65
2023-03-05T20:01:39.591Z,11.23
2023-03-05T20:06:38.445Z,10.52
2023-03-05T20:11:37.529Z,11.73
2023-03-05T20:16:38.794Z,10.63
2023-03-05T20:21:41.934Z,10.48
2023-03-05T20:26:41.683Z,11.05
2023-03-05T20:31:42.095Z,10.13
2023-03-05T20:36:42.468Z,10.25
2023-03-05T20:41:41.447Z,11.20
2023-03-05T20:47:26.322Z,10.23
2023-03-05T20:52:29.938Z,11.25
2023-03-05T21:02:27.395Z,10.50
2023-03-05T21:07:29.697Z,9.63
2023-03-05T21:12:31.549Z,9.52
2023-03-05T21:17:34.557Z,8.52
2023-03-05T21:22:34.953Z,9.30
2023-03-05T21:27:33.796Z,9.60
2023-03-05T21:32:32.656Z,9.60
2023-03-05T21:37:31.446Z,10.50
2023-03-05T21:42:34.686Z,9.30
2023-03-05T21:47:33.826Z,9.60
2023-03-05T21:52:32.854Z,8.23
2023-03-05T21:57:32.528Z,8.98
2023-03-05T22:02:33.053Z,8.38
2023-03-05T22:07:31.782Z,8.95
2023-03-05T22:13:13.404Z,9.65
2023-03-05T22:18:14.031Z,7.95
2023-03-05T22:23:13.520Z,9.15
2023-03-05T22:28:16.294Z,7.95
2023-03-05T22:33:32.594Z,8.30
2023-03-05T22:38:31.325Z,7.68
2023-03-05T22:43:30.105Z,8.02
2023-03-05T22:48:28.776Z,7.78
2023-03-05T22:53:28.967Z,7.60
2023-03-05T22:58:27.735Z,6.82
2023-03-05T23:03:26.778Z,8.68
2023-03-05T23:08:25.499Z,8.45
2023-03-05T23:13:25.608Z,9.20
2023-03-05T23:18:24.315Z,8.85
2023-03-05T23:23:22.996Z,8.88
2023-03-05T23:28:21.911Z,8.02
2023-03-05T23:33:23.990Z,9.02
2023-03-05T23:38:23.820Z,7.88
2023-03-05T23:43:25.811Z,8.60
2023-03-05T23:48:27.259Z,8.18
2023-03-05T23:53:27.977Z,8.50
2023-03-05T23:58:26.819Z,8.25
